LIPE Airport Information

Runway Information
Runway 12 Length 9196 ft width 148 ft
Elevation 120 ft Threshold 1007 ft Heading 117
Runway 30 Length 9196 ft Width 148 ft
Elevation 120 ft Threshold 1188 ft Heading 297
Airport Frequencies
Type APP Name APP Frequency 120.1 MHZ
Type ATIS Name ATIS Frequency 134.875 MHZ
Type GND Name GND Frequency 129.925 MHZ
Type TWR Name TWR Frequency 120.8 MHZ
Airport Navaids
Type VOR-DME Name Bologna Frequency 117100 KHZ
Type NDB Name Bologna Frequency 413 KHZ
Airport Weather Information & NOTAM
ADDS - METARS form results

(0836 UTC 09 February 2023)
Data provider http://aviationweather.gov/metar/data/
 
METAR text: LIPE 090820Z 26007KT 9999 BKN050 01/M06 Q1037
Conditions at: LIPE (BOLOGNA/BORGO (A, IT) observed 0820 UTC 09 February 2023
Temperature: 1.0°C (34°F)
Dewpoint: -6.0°C (21°F) [RH = 59%]
Pressure (altimeter): 30.62 inches Hg (1037.0 mb)
Winds: from the W (260 degrees) at 8 MPH (7 knots; 3.6 m/s)
Visibility: 6 or more miles (10+ km)
Ceiling: 5000 feet AGL
Clouds: broken clouds at 5000 feet AGL
Weather: no significant weather observed at this time

METAR text: LIPE 090750Z 27007KT 9999 BKN050 00/M06 Q1037
Conditions at: LIPE (BOLOGNA/BORGO (A, IT) observed 0750 UTC 09 February 2023
Temperature: 0.0°C (32°F)
Dewpoint: -6.0°C (21°F) [RH = 64%]
Pressure (altimeter): 30.62 inches Hg (1037.0 mb)
Winds: from the W (270 degrees) at 8 MPH (7 knots; 3.6 m/s)
Visibility: 6 or more miles (10+ km)
Ceiling: 5000 feet AGL
Clouds: broken clouds at 5000 feet AGL
Weather: no significant weather observed at this time

Forecast for: LIPE (BOLOGNA/BORGO (A, IT)
Text: TAF LIPE 090500Z 0906/1006 VRB05KT 9999 SCT040
Forecast period: 0600 to 0700 UTC 09 February 2023
Forecast type: FROM: standard forecast or significant change
Winds: variable direction winds at 6 MPH (5 knots; 2.6 m/s)
Visibility: 6 or more miles (10+ km)
Ceiling: at least 12,000 feet AGL
Clouds: scattered clouds at 4000 feet AGL
Weather: no significant weather forecast for this period
Text: BECMG 0907/0909 31010KT
Forecast period: 0700 to 1500 UTC 09 February 2023
Forecast type: BECOMING: Conditions expected to become as follows by 0900 UTC 09 February 2023
Winds: from the NW (310 degrees) at 12 MPH (10 knots; 5.1 m/s)
Visibility: 6 or more miles (10+ km)
Ceiling: at least 12,000 feet AGL
Clouds: scattered clouds at 4000 feet AGL
Weather: no significant weather forecast for this period
Text: BECMG 0915/0917 VRB05KT
Forecast period: 1500 UTC 09 February 2023 to 0600 UTC 10 February 2023
Forecast type: BECOMING: Conditions expected to become as follows by 1700 UTC 09 February 2023
Winds: variable direction winds at 6 MPH (5 knots; 2.6 m/s)
Visibility: 6 or more miles (10+ km)
Ceiling: at least 12,000 feet AGL
Clouds: scattered clouds at 4000 feet AGL
Weather: no significant weather forecast for this period